Overview Statistics Trail Chart Weather Telemetry Raw packets
 

This is the latest recevied weather packets stored in our database for station/object SQ9RHX-11. If no packets are shown the sender has not sent any weather packets the latest 10 day(s).

<< 1 2 3 4 >>
Time Temp. Humidity Pressure Rain* Wind** Luminosity Snow
1788500118 18.33° C 73% 1016.8 hPa - - - -
1788498321 17.78° C 75% 1016.7 hPa - - - -
1788496523 17.22° C 75% 1016.5 hPa - - - -
1788494727 17.22° C 74% 1016.8 hPa - - - -
1788491134 16.67° C 75% 1017 hPa - - - -
1788489336 17.22° C 74% 1017 hPa - - - -
1788487539 17.22° C 73% 1017 hPa - - - -
1788485741 17.22° C 73% 1017.1 hPa - - - -
1788483945 16.67° C 72% 1017 hPa - - - -
1788482149 17.22° C 72% 1017.2 hPa - - - -
1788480351 17.22° C 73% 1017.3 hPa - - - -
1788478554 17.22° C 73% 1017.6 hPa - - - -
1788476758 17.22° C 72% 1017.4 hPa - - - -
1788474987 17.22° C 71% 1017.7 hPa - - - -
1788473165 17.78° C 69% 1017.8 hPa - - - -
1788471369 18.33° C 67% 1017.6 hPa - - - -
1788469574 18.89° C 63% 1017.5 hPa - - - -
1788467777 19.44° C 61% 1017.6 hPa - - - -
1788464183 19.44° C 60% 1017.5 hPa - - - -
1788462385 18.33° C 62% 1017.4 hPa - - - -
1788458791 19.44° C 59% 1017.4 hPa - - - -
1788456997 19.44° C 58% 1017.5 hPa - - - -
1788455202 18.89° C 55% 1017.7 hPa - - - -
1788453410 20.56° C 50% 1017.8 hPa - - - -
1788451612 21.67° C 47% 1017.9 hPa - - - -

* Rain since midnight (hover to see other rain measurements)
** Current wind speed in m/s (hover to see current wind gust speed)